ETEB 041556Z AUTO 09004KT 9999 CLR 01/01 A2922 RMK AO2 SLP933 T00050005 $ ETIK 041556Z AUTO 07003KT 9999 CLR 01/00 A2924 RMK AO2 SLP919 T00130000 EDDE 041650Z VRB02KT CAVOK 02/M02 Q0991 NOSIG EDDF 041650Z 06006KT 020V090 9999 -RA FEW018 SCT042 03/02 Q0990 NOSIG ETIC 041556Z AUTO 07005KT 9999 CLR 00/M03 A2927 RMK AO2 SLP937 T00031031 $ EDQM 041650Z 11006KT 9999 FEW010 OVC140 M01/M03 Q0991 ETIH 041556Z AUTO 00000KT 9999 CLR 00/M04 A2927 RMK AO2 SLP939 T10011042 ETSI 041620Z AUTO 07007KT 9999 // ////// 01/M02 Q0989 /// EDDP 041650Z 13008KT CAVOK 01/M02 Q0993 NOSIG EDDM 041650Z 08006KT CAVOK 01/M02 Q0990 NOSIG ETSN 041620Z 05005KT 9000 FEW090 BKN110 01/M01 Q0989 BLU ETHN 041620Z 01002KT 9999 SCT080 OVC140 M01/M03 Q0990 BLU EDDN 041650Z 09004KT CAVOK 02/M02 Q0990 NOSIG EDDS 041650Z VRB02KT 9999 FEW018 02/00 Q0990 NOSIG

METAR Messwerte

Klicken Sie auf einen Ort, um die 36h-Historie abzurufen

Ort
m ü. NN
Zeit Temperatur Taupunkt Rel.
Luftfeuchte
Luftdruck:
Altimeter
NN
Station
Wind in Beaufort
(Knoten)
Sichtweite
(Meter)
Wolken
(Meter über Grund)
Wettererscheinung
Ansbach
467
Fr 04.12. 16:5611100 %990
993
936
O 2 (4)>= 10000  
Bad Windsheim / Illesheim
325
Fr 04.12. 16:561093 %990
992
952
ONO 2 (3)>= 10000  
Erfurt-Bindersleben
323
Fr 04.12. 17:502-275 %991
993
953
Uml 1 (2)>= 10000Nicht signifikant 
Frankfurt
113
Fr 04.12. 17:503293 %990
991
977
ONO 2 (6)
NNO - O
>= 10000Wolkig (1300)
Leicht bewölkt (550)
Regen (schwach)
Grafenwöhr
415
Fr 04.12. 16:560-380 %991
994
943
ONO 2 (5)>= 10000  
Hof
568
Fr 04.12. 17:50-1-386 %991
995
926
OSO 2 (6)>= 10000Bedeckt (4300)
Leicht bewölkt (300)
 
Hohenfels
442
Fr 04.12. 16:560-474 %991
994
940
Windstill>= 10000  
Ingolstadt
370
Fr 04.12. 17:201-280 %989
991
946
ONO 3 (7)>= 10000  
Leipzig-Schkeuditz
149
Fr 04.12. 17:501-280 %993
994
976
SO 3 (8)>= 10000Nicht signifikant 
München
447
Fr 04.12. 17:501-280 %990
992
938
O 2 (6)>= 10000Nicht signifikant 
Neuburg/Donau
387
Fr 04.12. 17:201-186 %989
991
944
NO 2 (5)9000Stark bewölkt (3400)
Leicht bewölkt (2700)
 
Niederstetten
473
Fr 04.12. 17:20-1-386 %990
993
935
N 1 (2)>= 10000Bedeckt (4300)
Wolkig (2400)
 
Nürnberg
312
Fr 04.12. 17:502-275 %990
992
954
O 2 (4)>= 10000Nicht signifikant 
Stuttgart
419
Fr 04.12. 17:502087 %990
992
942
Uml 1 (2)>= 10000Leicht bewölkt (550) 

Altimeter: Einstellung am Altimeter (Höhenmesser), die Höhe 0 muss auf diesen Luftdruckwert zeigen, damit das Gerät die Stationshöhe richtig anzeigt.

NN: Luftdruck reduziert auf "Normal Null", auf Meereshöhe, dieser von der Temperatur abhängige Wert wird bisweilen unkorrekt einfach als "Luftdruck" bezeichnet. Eigentlich nur eine fiktive Größe, die es erlaubt, Stationen auf unterschiedlichen Höhen miteinander zu vergleichen.

Station: Realer Luftdruck an der Station.